Map

Track Data

SID SEASON NUMBER BASIN SUBBASIN NAME ISO_TIME NATURE LAT LON WMO_WIND WMO_PRES WMO_AGENCY TRACK_TYPE DIST2LAND LANDFALL IFLAG USA_AGENCY USA_ATCF_ID USA_LAT USA_LON USA_RECORD USA_STATUS USA_WIND USA_PRES USA_SSHS USA_R34_NE USA_R34_SE USA_R34_SW USA_R34_NW USA_R50_NE USA_R50_SE USA_R50_SW USA_R50_NW USA_R64_NE USA_R64_SE USA_R64_SW USA_R64_NW USA_POCI USA_ROCI USA_RMW USA_EYE TOKYO_LAT TOKYO_LON TOKYO_GRADE TOKYO_WIND TOKYO_PRES TOKYO_R50_DIR TOKYO_R50_LONG TOKYO_R50_SHORT TOKYO_R30_DIR TOKYO_R30_LONG TOKYO_R30_SHORT TOKYO_LAND CMA_LAT CMA_LON CMA_CAT CMA_WIND CMA_PRES HKO_LAT HKO_LON HKO_CAT HKO_WIND HKO_PRES NEWDELHI_LAT NEWDELHI_LON NEWDELHI_GRADE NEWDELHI_WIND NEWDELHI_PRES NEWDELHI_CI NEWDELHI_DP NEWDELHI_POCI REUNION_LAT REUNION_LON REUNION_TYPE REUNION_WIND REUNION_PRES REUNION_TNUM REUNION_CI REUNION_RMW REUNION_R34_NE REUNION_R34_SE REUNION_R34_SW REUNION_R34_NW REUNION_R50_NE REUNION_R50_SE REUNION_R50_SW REUNION_R50_NW REUNION_R64_NE REUNION_R64_SE REUNION_R64_SW REUNION_R64_NW BOM_LAT BOM_LON BOM_TYPE BOM_WIND BOM_PRES BOM_TNUM BOM_CI BOM_RMW BOM_R34_NE BOM_R34_SE BOM_R34_SW BOM_R34_NW BOM_R50_NE BOM_R50_SE BOM_R50_SW BOM_R50_NW BOM_R64_NE BOM_R64_SE BOM_R64_SW BOM_R64_NW BOM_ROCI BOM_POCI BOM_EYE BOM_POS_METHOD BOM_PRES_METHOD NADI_LAT NADI_LON NADI_CAT NADI_WIND NADI_PRES WELLINGTON_LAT WELLINGTON_LON WELLINGTON_WIND WELLINGTON_PRES DS824_LAT DS824_LON DS824_STAGE DS824_WIND DS824_PRES TD9636_LAT TD9636_LON TD9636_STAGE TD9636_WIND TD9636_PRES TD9635_LAT TD9635_LON TD9635_WIND TD9635_PRES TD9635_ROCI NEUMANN_LAT NEUMANN_LON NEUMANN_CLASS NEUMANN_WIND NEUMANN_PRES MLC_LAT MLC_LON MLC_CLASS MLC_WIND MLC_PRES USA_GUST BOM_GUST BOM_GUST_PER REUNION_GUST REUNION_GUST_PER USA_SEAHGT USA_SEARAD_NE USA_SEARAD_SE USA_SEARAD_SW USA_SEARAD_NW STORM_SPEED STORM_DIR
1911144N16133 1911 36 WP MM NOT_NAMED 1911-05-23 16:00:00 NR 15.6000 132.500 main 846 786 __________O___ -1 15.6000 132.500 7 35 302
1911144N16133 1911 36 WP MM NOT_NAMED 1911-05-23 18:00:00 NR 16.2221 131.474 main 786 698 __________P___ -1 16.2221 131.474 7 34 302
1911144N16133 1911 36 WP MM NOT_NAMED 1911-05-23 21:00:00 NR 17.1176 129.974 main 698 633 __________P___ -1 17.1176 129.974 7 32 302
1911144N16133 1911 36 WP MM NOT_NAMED 1911-05-24 00:00:00 NR 17.9272 128.596 main 633 538 __________P___ -1 17.9272 128.596 7 29 302
1911144N16133 1911 36 WP MM NOT_NAMED 1911-05-24 03:00:00 NR 18.6084 127.428 main 538 517 __________P___ -1 18.6084 127.428 7 25 302
1911144N16133 1911 36 WP MM NOT_NAMED 1911-05-24 04:00:00 NR 18.8000 127.100 main 507 449 __________O___ -1 18.8000 127.100 7 20 302
1911144N16133 1911 36 WP MM NOT_NAMED 1911-05-24 06:00:00 NR 19.1269 126.549 main 449 408 __________P___ -1 19.1269 126.549 7 16 304
1911144N16133 1911 36 WP MM NOT_NAMED 1911-05-24 09:00:00 NR 19.5138 125.959 main 408 380 __________P___ -1 19.5138 125.959 7 11 309
1911144N16133 1911 36 WP MM NOT_NAMED 1911-05-24 12:00:00 NR 19.8398 125.604 main 380 375 __________P___ -1 19.8398 125.604 7 8 323
1911144N16133 1911 36 WP MM NOT_NAMED 1911-05-24 15:00:00 NR 20.1746 125.428 main 382 382 __________P___ -1 20.1746 125.428 7 8 338
1911144N16133 1911 36 WP MM NOT_NAMED 1911-05-24 16:00:00 NR 20.3000 125.400 main 388 388 __________O___ -1 20.3000 125.400 7 10 342
1911144N16133 1911 36 WP MM NOT_NAMED 1911-05-24 18:00:00 NR 20.6277 125.273 main 399 398 __________P___ -1 20.6277 125.273 7 11 348
1911144N16133 1911 36 WP MM NOT_NAMED 1911-05-24 21:00:00 NR 21.1579 125.208 main 436 429 __________P___ -1 21.1579 125.208 7 11 1
1911144N16133 1911 36 WP MM NOT_NAMED 1911-05-25 00:00:00 NR 21.7045 125.303 main 430 426 __________P___ -1 21.7045 125.303 7 11 17
1911144N16133 1911 36 WP MM NOT_NAMED 1911-05-25 03:00:00 NR 22.2335 125.570 main 442 439 __________P___ -1 22.2335 125.570 7 12 28
1911144N16133 1911 36 WP MM NOT_NAMED 1911-05-25 04:00:00 NR 22.4000 125.700 main 447 445 __________O___ -1 22.4000 125.700 7 13 41
1911144N16133 1911 36 WP MM NOT_NAMED 1911-05-25 06:00:00 NR 22.7092 126.009 main 463 463 __________P___ -1 22.7092 126.009 7 14 49
1911144N16133 1911 36 WP MM NOT_NAMED 1911-05-25 09:00:00 NR 23.1413 126.625 main 502 509 __________P___ -1 23.1413 126.625 7 15 56
1911144N16133 1911 36 WP MM NOT_NAMED 1911-05-25 12:00:00 NR 23.5348 127.360 main 569 567 __________P___ -1 23.5348 127.360 7 16 62
1911144N16133 1911 36 WP MM NOT_NAMED 1911-05-25 15:00:00 NR 23.8899 128.142 main 629 639 __________P___ -1 23.8899 128.142 7 16 64
1911144N16133 1911 36 WP MM NOT_NAMED 1911-05-25 16:00:00 NR 24.0000 128.400 main 656 656 __________O___ -1 24.0000 128.400 7 14 64
1911144N16133 1911 36 WP MM NOT_NAMED 1911-05-25 18:00:00 NR 24.1883 128.812 main 692 692 __________P___ -1 24.1883 128.812 7 12 65
1911144N16133 1911 36 WP MM NOT_NAMED 1911-05-25 21:00:00 NR 24.4395 129.434 main 747 705 __________P___ -1 24.4395 129.434 7 13 67
1911144N16133 1911 36 WP MM NOT_NAMED 1911-05-26 00:00:00 NR 24.6914 130.111 main 705 670 __________P___ -1 24.6914 130.111 7 14 68
1911144N16133 1911 36 WP MM NOT_NAMED 1911-05-26 03:00:00 NR 24.9855 130.901 main 670 659 __________P___ -1 24.9855 130.901 7 16 68
1911144N16133 1911 36 WP MM NOT_NAMED 1911-05-26 04:00:00 NR 25.1000 131.200 main 660 636 __________O___ -1 25.1000 131.200 7 20 67
1911144N16133 1911 36 WP MM NOT_NAMED 1911-05-26 06:00:00 NR 25.3677 131.893 main 636 618 __________P___ -1 25.3677 131.893 7 22 67
1911144N16133 1911 36 WP MM NOT_NAMED 1911-05-26 09:00:00 NR 25.8184 133.059 main 626 617 __________P___ -1 25.8184 133.059 7 24 67
1911144N16133 1911 36 WP MM NOT_NAMED 1911-05-26 12:00:00 NR 26.3104 134.315 main 631 632 __________P___ -1 26.3104 134.315 7 25 66
1911144N16133 1911 36 WP MM NOT_NAMED 1911-05-26 15:00:00 NR 26.8258 135.586 main 655 652 __________P___ -1 26.8258 135.586 7 25 65
1911144N16133 1911 36 WP MM NOT_NAMED 1911-05-26 16:00:00 NR 27.0000 136.000 main 663 661 __________O___ -1 27.0000 136.000 7 24 64
1911144N16133 1911 36 WP MM NOT_NAMED 1911-05-26 18:00:00 NR 27.3497 136.802 main 687 648 __________P___ -1 27.3497 136.802 7 23 63
1911144N16133 1911 36 WP MM NOT_NAMED 1911-05-26 21:00:00 NR 27.8763 137.951 main 648 635 __________P___ -1 27.8763 137.951 7 23 62
1911144N16133 1911 36 WP MM NOT_NAMED 1911-05-27 00:00:00 NR 28.4031 139.056 main 640 635 __________P___ -1 28.4031 139.056 7 22 61
1911144N16133 1911 36 WP MM NOT_NAMED 1911-05-27 03:00:00 NR 28.9268 140.139 main 647 631 __________P___ -1 28.9268 140.139 7 22 61
1911144N16133 1911 36 WP MM NOT_NAMED 1911-05-27 04:00:00 NR 29.1000 140.500 main 634 __________O___ -1 29.1000 140.500 7 22 61

Digital Typhoon Data and Search

About IBTrACS Database

This database is a web-friendly format of International Best Track Archive for Climate Stewardship (IBTrACS), a global best track data archive curated by NOAA dating back to 1842.

Updated: 2021-10-25